Time;durP1;ratioP1;P1;durP2;ratioP2;P2;SDS_P1;SDS_P2;PMS_P1;PMS_P2;Temp;Humidity;BMP_temperature;BMP_pressure;BME280_temperature;BME280_humidity;BME280_pressure;Samples;Min_cycle;Max_cycle;Signal;HPM_P1;HPM_P2
2022/03/28 00:01:18;;;;;;;13.13;4.75;;;;;;;;;;5032228;28;20040;-62
2022/03/28 00:03:44;;;;;;;11.25;4.75;;;;;;;;;;5032148;28;20041;-62
2022/03/28 00:06:10;;;;;;;12.32;5.07;;;;;;;;;;5032266;28;20025;-61
2022/03/28 00:08:37;;;;;;;14.30;5.32;;;;;;;;;;5031993;28;20030;-63
2022/03/28 00:11:04;;;;;;;11.70;5.88;;;;;;;;;;5031993;28;20021;-63
2022/03/28 00:13:29;;;;;;;18.40;6.32;;;;;;;;;;5031797;28;20168;-64
2022/03/28 00:15:55;;;;;;;14.05;4.78;;;;;;;;;;5032314;28;20079;-63
2022/03/28 00:18:21;;;;;;;9.98;5.28;;;;;;;;;;5032166;28;20462;-63
2022/03/28 00:20:49;;;;;;;14.23;7.15;;;;;;;;;;5034784;28;20108;-64
2022/03/28 00:23:15;;;;;;;30.42;16.35;;;;;;;;;;5035855;28;20029;-64
2022/03/28 00:25:42;;;;;;;15.88;10.13;;;;;;;;;;5035656;28;20032;-62
2022/03/28 00:28:08;;;;;;;20.67;11.70;;;;;;;;;;5035484;28;20497;-65
2022/03/28 00:30:34;;;;;;;40.42;24.25;;;;;;;;;;5035437;28;20120;-61
2022/03/28 00:32:59;;;;;;;22.08;12.30;;;;;;;;;;5035745;28;20045;-61
2022/03/28 00:35:26;;;;;;;20.20;9.95;;;;;;;;;;5035537;28;20033;-62
2022/03/28 00:37:53;;;;;;;33.15;16.65;;;;;;;;;;5035586;28;20422;-63
2022/03/28 00:40:19;;;;;;;65.20;40.90;;;;;;;;;;5035600;28;20035;-63
2022/03/28 00:42:45;;;;;;;167.73;88.32;;;;;;;;;;5035324;28;20382;-65
2022/03/28 00:45:11;;;;;;;324.88;150.23;;;;;;;;;;5035292;28;20496;-64
2022/03/28 00:47:36;;;;;;;213.38;103.88;;;;;;;;;;5035301;28;20052;-61
2022/03/28 00:50:04;;;;;;;181.48;93.22;;;;;;;;;;5035358;28;20029;-62
2022/03/28 00:52:29;;;;;;;72.70;41.95;;;;;;;;;;5035250;28;20029;-64
2022/03/28 00:54:57;;;;;;;69.65;35.05;;;;;;;;;;5035283;28;20498;-61
2022/03/28 00:57:23;;;;;;;34.60;23.02;;;;;;;;;;5034998;28;20028;-62
2022/03/28 00:59:48;;;;;;;24.23;13.18;;;;;;;;;;5035066;28;20033;-64
2022/03/28 01:02:14;;;;;;;19.60;8.18;;;;;;;;;;5035219;28;20033;-62
2022/03/28 01:04:39;;;;;;;11.27;6.68;;;;;;;;;;5035103;28;20471;-62
2022/03/28 01:07:06;;;;;;;13.93;5.75;;;;;;;;;;5028438;28;20085;-62
2022/03/28 01:09:32;;;;;;;10.77;5.32;;;;;;;;;;5015189;28;20345;-62
2022/03/28 01:11:59;;;;;;;13.20;5.50;;;;;;;;;;5023013;28;20075;-65
2022/03/28 01:14:26;;;;;;;9.27;4.82;;;;;;;;;;5034812;28;20053;-63
2022/03/28 01:19:35;;;;;;;11.43;5.20;;;;;;;;;;5034857;28;20048;-63
2022/03/28 01:22:01;;;;;;;12.98;5.07;;;;;;;;;;5034876;28;20455;-63
2022/03/28 01:24:27;;;;;;;13.85;5.40;;;;;;;;;;5034706;28;20029;-61
2022/03/28 01:26:54;;;;;;;13.02;5.68;;;;;;;;;;5034697;28;20060;-64
2022/03/28 01:29:20;;;;;;;11.88;5.60;;;;;;;;;;5034405;28;20053;-62
2022/03/28 01:31:45;;;;;;;10.45;5.20;;;;;;;;;;5034161;28;20037;-61
2022/03/28 01:34:18;;;;;;;11.15;5.45;;;;;;;;;;5034565;28;20100;-63
2022/03/28 01:36:47;;;;;;;14.07;5.20;;;;;;;;;;5034567;28;20091;-61
2022/03/28 01:39:14;;;;;;;14.50;5.55;;;;;;;;;;5034234;28;20026;-63
2022/03/28 01:41:40;;;;;;;12.00;5.68;;;;;;;;;;5034342;28;20423;-64
2022/03/28 01:44:06;;;;;;;12.68;5.43;;;;;;;;;;5034364;28;20033;-61
2022/03/28 01:46:41;;;;;;;10.05;5.32;;;;;;;;;;5034354;28;20021;-61
2022/03/28 01:49:07;;;;;;;17.65;5.97;;;;;;;;;;5034340;28;20351;-64
2022/03/28 01:51:32;;;;;;;13.07;5.28;;;;;;;;;;5034096;28;20082;-61
2022/03/28 01:54:01;;;;;;;11.85;5.60;;;;;;;;;;5033846;28;20479;-62
2022/03/28 01:56:28;;;;;;;17.63;5.88;;;;;;;;;;5034164;28;20040;-64
2022/03/28 01:58:54;;;;;;;14.15;6.10;;;;;;;;;;5034184;28;20164;-61
2022/03/28 02:01:19;;;;;;;16.58;6.20;;;;;;;;;;5034118;28;20072;-62
2022/03/28 02:03:44;;;;;;;14.52;6.47;;;;;;;;;;5033906;28;20499;-65
2022/03/28 02:06:10;;;;;;;15.35;6.07;;;;;;;;;;5034034;28;20025;-62
2022/03/28 02:08:36;;;;;;;13.82;6.32;;;;;;;;;;5014693;28;20033;-63
2022/03/28 02:11:01;;;;;;;14.75;6.03;;;;;;;;;;5014440;28;20058;-61
2022/03/28 02:13:27;;;;;;;12.90;5.97;;;;;;;;;;5033732;28;20112;-63
2022/03/28 02:15:52;;;;;;;13.68;6.43;;;;;;;;;;5033734;28;20359;-62
2022/03/28 02:18:17;;;;;;;13.68;6.35;;;;;;;;;;5033768;28;20021;-64
2022/03/28 02:20:43;;;;;;;12.10;5.95;;;;;;;;;;5033681;28;20416;-62
2022/03/28 02:23:08;;;;;;;13.38;6.15;;;;;;;;;;5033470;28;20041;-65
2022/03/28 02:25:37;;;;;;;14.55;6.15;;;;;;;;;;5033425;28;20052;-62
2022/03/28 02:28:03;;;;;;;15.68;6.50;;;;;;;;;;5033603;28;20427;-63
2022/03/28 02:30:30;;;;;;;14.02;5.88;;;;;;;;;;5033157;28;20055;-63
2022/03/28 02:32:57;;;;;;;14.00;6.07;;;;;;;;;;5033513;28;20029;-63
2022/03/28 02:35:23;;;;;;;13.48;5.93;;;;;;;;;;5033303;28;20026;-63
2022/03/28 02:37:49;;;;;;;13.15;5.78;;;;;;;;;;5033088;28;20021;-62
2022/03/28 02:40:14;;;;;;;13.80;6.47;;;;;;;;;;5033250;28;20025;-64
2022/03/28 02:42:40;;;;;;;13.73;6.40;;;;;;;;;;5032707;28;20382;-63
2022/03/28 02:45:06;;;;;;;14.93;7.47;;;;;;;;;;5033045;28;20036;-64
2022/03/28 02:47:32;;;;;;;16.02;7.10;;;;;;;;;;5033237;28;20033;-61
2022/03/28 02:49:57;;;;;;;14.60;6.72;;;;;;;;;;5033166;28;20025;-62
2022/03/28 02:52:23;;;;;;;20.45;7.90;;;;;;;;;;5032775;28;20025;-62
2022/03/28 02:54:49;;;;;;;28.95;19.88;;;;;;;;;;5033086;28;20025;-62
2022/03/28 02:57:15;;;;;;;12.02;7.03;;;;;;;;;;5033086;28;20030;-61
2022/03/28 02:59:41;;;;;;;26.77;14.30;;;;;;;;;;5032740;28;20463;-63
2022/03/28 03:02:07;;;;;;;108.00;50.72;;;;;;;;;;5032992;28;20033;-62
2022/03/28 03:04:33;;;;;;;89.55;41.10;;;;;;;;;;5032876;28;20025;-64
2022/03/28 03:06:59;;;;;;;69.85;30.33;;;;;;;;;;5026834;28;20155;-64
2022/03/28 03:09:24;;;;;;;240.68;115.28;;;;;;;;;;5013055;28;20056;-61
2022/03/28 03:11:50;;;;;;;45.83;22.95;;;;;;;;;;5019908;28;20036;-63
2022/03/28 03:14:16;;;;;;;102.22;39.20;;;;;;;;;;5032732;28;20188;-61
2022/03/28 03:16:41;;;;;;;18.10;9.65;;;;;;;;;;5032680;28;20017;-64
2022/03/28 03:19:07;;;;;;;23.17;10.75;;;;;;;;;;5032606;28;20368;-61
2022/03/28 03:21:33;;;;;;;23.00;9.57;;;;;;;;;;5032515;28;20017;-63
2022/03/28 03:23:58;;;;;;;12.77;7.43;;;;;;;;;;5032690;28;20071;-64
2022/03/28 03:26:23;;;;;;;33.20;14.50;;;;;;;;;;5032588;28;20026;-63
2022/03/28 03:28:49;;;;;;;15.95;7.68;;;;;;;;;;5014802;28;20029;-62
2022/03/28 03:31:14;;;;;;;16.17;7.10;;;;;;;;;;5032547;28;20420;-62
2022/03/28 03:33:40;;;;;;;14.88;7.45;;;;;;;;;;5032362;28;20017;-63
2022/03/28 03:36:07;;;;;;;16.95;8.73;;;;;;;;;;5032382;28;20017;-63
2022/03/28 03:38:32;;;;;;;12.90;6.90;;;;;;;;;;5032301;28;20586;-61
2022/03/28 03:40:58;;;;;;;15.20;6.88;;;;;;;;;;5032228;28;20069;-64
2022/03/28 03:43:25;;;;;;;21.15;7.00;;;;;;;;;;5032295;28;20475;-62
2022/03/28 03:45:51;;;;;;;13.40;6.82;;;;;;;;;;5032382;28;20029;-61
2022/03/28 03:48:19;;;;;;;14.52;6.55;;;;;;;;;;5032412;28;20390;-63
2022/03/28 03:50:44;;;;;;;15.00;7.10;;;;;;;;;;5032163;28;20053;-63
2022/03/28 03:53:10;;;;;;;11.52;6.47;;;;;;;;;;5032590;28;20478;-63
2022/03/28 03:55:36;;;;;;;10.18;6.30;;;;;;;;;;5036326;28;20021;-61
2022/03/28 03:58:02;;;;;;;11.70;5.97;;;;;;;;;;5036443;28;20029;-64
2022/03/28 04:00:28;;;;;;;10.98;5.45;;;;;;;;;;5036402;28;20397;-62
2022/03/28 04:02:53;;;;;;;7.82;5.07;;;;;;;;;;5036319;28;20164;-63
2022/03/28 04:05:19;;;;;;;7.97;5.07;;;;;;;;;;5035993;28;20076;-64
2022/03/28 04:07:44;;;;;;;12.70;5.43;;;;;;;;;;5035956;28;20120;-65
2022/03/28 04:10:10;;;;;;;9.05;6.03;;;;;;;;;;5036205;28;20033;-64
2022/03/28 04:12:37;;;;;;;11.65;4.90;;;;;;;;;;5035741;28;20036;-63
2022/03/28 04:15:03;;;;;;;8.10;4.90;;;;;;;;;;5035882;28;20529;-62
2022/03/28 04:17:29;;;;;;;7.07;4.80;;;;;;;;;;5035834;28;20029;-64
2022/03/28 04:19:56;;;;;;;6.15;4.57;;;;;;;;;;5035675;28;20037;-61
2022/03/28 04:22:21;;;;;;;5.20;3.88;;;;;;;;;;5035795;28;20493;-61
2022/03/28 04:24:47;;;;;;;5.85;4.05;;;;;;;;;;5036103;28;20095;-63
2022/03/28 04:27:13;;;;;;;9.07;5.00;;;;;;;;;;5035614;28;20025;-64
2022/03/28 04:29:38;;;;;;;6.93;4.38;;;;;;;;;;5035274;28;20052;-63
2022/03/28 04:32:04;;;;;;;9.35;5.15;;;;;;;;;;5035710;28;20040;-61
2022/03/28 04:34:30;;;;;;;10.88;5.10;;;;;;;;;;5035327;28;20075;-64
2022/03/28 04:36:55;;;;;;;9.63;5.03;;;;;;;;;;5035680;28;20426;-64
2022/03/28 04:39:21;;;;;;;9.05;5.38;;;;;;;;;;5035653;28;20597;-61
2022/03/28 04:41:46;;;;;;;9.90;5.85;;;;;;;;;;5035417;28;20044;-64
2022/03/28 04:44:12;;;;;;;8.88;5.72;;;;;;;;;;5035316;28;20071;-64
2022/03/28 04:46:38;;;;;;;9.05;5.22;;;;;;;;;;5035344;28;20040;-61
2022/03/28 04:49:03;;;;;;;6.97;5.00;;;;;;;;;;5034431;28;20375;-64
2022/03/28 04:51:29;;;;;;;13.80;5.25;;;;;;;;;;5034900;28;20029;-64
2022/03/28 04:53:54;;;;;;;10.73;5.20;;;;;;;;;;5035260;28;20037;-63
2022/03/28 04:56:19;;;;;;;10.15;4.75;;;;;;;;;;5035454;28;20022;-63
2022/03/28 04:58:45;;;;;;;10.25;5.20;;;;;;;;;;5035278;28;20029;-63
2022/03/28 05:01:11;;;;;;;10.00;6.00;;;;;;;;;;5035134;28;20041;-63
2022/03/28 05:03:36;;;;;;;9.23;6.00;;;;;;;;;;5034539;28;20382;-64
2022/03/28 05:06:03;;;;;;;9.85;5.78;;;;;;;;;;5034347;28;20036;-63
2022/03/28 05:08:28;;;;;;;12.95;6.88;;;;;;;;;;5034809;28;20037;-64
2022/03/28 05:10:54;;;;;;;8.68;4.95;;;;;;;;;;5034409;28;20363;-63
2022/03/28 05:13:20;;;;;;;12.52;5.53;;;;;;;;;;5034646;28;20032;-63
2022/03/28 05:15:46;;;;;;;14.20;6.00;;;;;;;;;;5034743;28;20030;-64
2022/03/28 05:18:14;;;;;;;12.45;6.18;;;;;;;;;;5034580;28;20033;-64
2022/03/28 05:20:40;;;;;;;12.25;6.18;;;;;;;;;;5034738;28;20443;-63
2022/03/28 05:23:06;;;;;;;13.13;7.13;;;;;;;;;;5034399;28;20033;-63
2022/03/28 05:25:31;;;;;;;16.85;6.30;;;;;;;;;;5034412;28;20037;-64
2022/03/28 05:27:57;;;;;;;12.18;6.72;;;;;;;;;;5034443;28;20022;-61
2022/03/28 05:30:22;;;;;;;12.35;7.75;;;;;;;;;;5016694;28;20041;-64
2022/03/28 05:32:48;;;;;;;11.18;6.03;;;;;;;;;;5034427;28;20032;-64
2022/03/28 05:35:14;;;;;;;13.88;6.93;;;;;;;;;;5034536;28;20037;-64
2022/03/28 05:37:41;;;;;;;16.95;7.68;;;;;;;;;;5034461;28;20104;-62
2022/03/28 05:40:10;;;;;;;18.55;6.68;;;;;;;;;;5034425;28;20100;-63
2022/03/28 05:42:36;;;;;;;8.65;5.90;;;;;;;;;;5030787;28;20021;-62
2022/03/28 05:45:03;;;;;;;14.98;8.07;;;;;;;;;;5034295;28;20036;-63
2022/03/28 05:47:28;;;;;;;11.27;6.28;;;;;;;;;;5034084;28;20069;-63
2022/03/28 05:49:54;;;;;;;10.80;5.78;;;;;;;;;;5034122;28;20551;-63
2022/03/28 05:52:19;;;;;;;12.95;7.28;;;;;;;;;;5033968;28;20116;-61
2022/03/28 05:54:45;;;;;;;15.23;6.68;;;;;;;;;;5034109;28;20100;-64
2022/03/28 05:57:11;;;;;;;22.25;7.40;;;;;;;;;;5034088;28;20025;-62
2022/03/28 05:59:37;;;;;;;15.15;9.68;;;;;;;;;;5034124;28;20129;-66
2022/03/28 06:02:04;;;;;;;13.77;6.93;;;;;;;;;;5033569;28;20538;-64
2022/03/28 06:04:30;;;;;;;15.35;8.57;;;;;;;;;;5033491;28;20113;-63
2022/03/28 06:06:55;;;;;;;16.15;8.85;;;;;;;;;;5033679;28;20112;-63
2022/03/28 06:09:21;;;;;;;16.48;7.80;;;;;;;;;;5033784;28;20079;-63
2022/03/28 06:11:46;;;;;;;13.27;7.28;;;;;;;;;;5033566;28;20049;-64
2022/03/28 06:14:12;;;;;;;16.23;8.25;;;;;;;;;;5033595;28;20018;-64
2022/03/28 06:16:37;;;;;;;28.58;9.13;;;;;;;;;;5032921;28;20395;-64
2022/03/28 06:19:03;;;;;;;16.65;6.43;;;;;;;;;;5033189;28;20030;-63
2022/03/28 06:21:32;;;;;;;21.35;9.70;;;;;;;;;;5033627;28;20036;-64
2022/03/28 06:24:01;;;;;;;28.40;7.60;;;;;;;;;;5033362;28;20148;-63
2022/03/28 06:26:26;;;;;;;10.27;6.57;;;;;;;;;;5033297;28;20021;-64
2022/03/28 06:28:52;;;;;;;14.25;7.82;;;;;;;;;;5033422;28;20032;-63
2022/03/28 06:31:18;;;;;;;14.32;8.18;;;;;;;;;;5033203;28;20479;-62
2022/03/28 06:33:44;;;;;;;12.88;8.02;;;;;;;;;;5033296;28;20458;-64
2022/03/28 06:36:09;;;;;;;20.88;7.25;;;;;;;;;;5033375;28;20352;-64
2022/03/28 06:38:35;;;;;;;15.05;7.30;;;;;;;;;;5033410;28;20032;-63
2022/03/28 06:41:01;;;;;;;13.00;7.65;;;;;;;;;;5033319;28;20040;-63
2022/03/28 06:43:27;;;;;;;10.70;6.03;;;;;;;;;;5033013;28;20033;-63
2022/03/28 06:45:52;;;;;;;12.35;6.63;;;;;;;;;;5033378;28;20455;-62
2022/03/28 06:48:19;;;;;;;12.48;6.78;;;;;;;;;;5033118;28;20481;-63
2022/03/28 06:50:45;;;;;;;15.40;7.93;;;;;;;;;;5033123;28;20371;-64
2022/03/28 06:53:10;;;;;;;13.15;7.05;;;;;;;;;;5033131;28;20018;-63
2022/03/28 06:55:36;;;;;;;8.00;5.45;;;;;;;;;;5033041;28;20021;-64
2022/03/28 06:58:02;;;;;;;13.95;6.68;;;;;;;;;;5032723;28;20049;-64
2022/03/28 07:00:27;;;;;;;12.82;5.85;;;;;;;;;;5032907;28;20029;-63
2022/03/28 07:02:53;;;;;;;9.25;5.55;;;;;;;;;;5032918;28;20128;-62
2022/03/28 07:05:18;;;;;;;7.95;5.32;;;;;;;;;;5032140;28;20037;-63
2022/03/28 07:07:46;;;;;;;10.30;5.75;;;;;;;;;;5024366;28;20037;-64
2022/03/28 07:10:16;;;;;;;15.88;6.13;;;;;;;;;;5031499;28;20030;-64
2022/03/28 07:12:42;;;;;;;;;;;;;;;;;;5032213;28;20470;-64
2022/03/28 07:15:12;;;;;;;8.48;5.05;;;;;;;;;;5032351;28;19913;-65
2022/03/28 07:17:45;;;;;;;8.23;5.30;;;;;;;;;;5032542;28;20040;-64
2022/03/28 07:20:10;;;;;;;11.57;5.72;;;;;;;;;;5032430;28;20037;-62
2022/03/28 07:22:36;;;;;;;12.93;6.60;;;;;;;;;;5032371;28;20026;-62
2022/03/28 07:25:02;;;;;;;10.90;6.22;;;;;;;;;;5032404;28;20372;-62
2022/03/28 07:27:28;;;;;;;9.95;4.95;;;;;;;;;;5032148;28;20116;-62
2022/03/28 07:29:53;;;;;;;10.82;6.22;;;;;;;;;;5031891;28;20125;-61
2022/03/28 07:32:19;;;;;;;15.40;5.78;;;;;;;;;;5032190;28;20446;-61
2022/03/28 07:34:44;;;;;;;13.48;6.63;;;;;;;;;;5032540;28;20026;-62
2022/03/28 07:37:10;;;;;;;10.63;5.75;;;;;;;;;;5032348;28;20021;-63
2022/03/28 07:39:38;;;;;;;9.82;5.80;;;;;;;;;;5032278;28;20462;-63
2022/03/28 07:42:07;;;;;;;8.77;6.07;;;;;;;;;;5030841;28;20041;-60
2022/03/28 07:44:34;;;;;;;10.27;7.10;;;;;;;;;;5012488;28;20034;-62
2022/03/28 07:47:00;;;;;;;11.38;5.47;;;;;;;;;;5012531;28;20448;-60
2022/03/28 07:49:27;;;;;;;9.38;5.60;;;;;;;;;;5012503;28;20022;-62
2022/03/28 07:51:53;;;;;;;10.75;4.97;;;;;;;;;;5012413;28;20120;-62
2022/03/28 07:54:19;;;;;;;12.27;5.82;;;;;;;;;;5012278;28;20058;-60
2022/03/28 07:56:45;;;;;;;8.93;5.72;;;;;;;;;;5012257;28;20034;-62
2022/03/28 07:59:12;;;;;;;10.88;6.10;;;;;;;;;;5012362;28;20026;-60
2022/03/28 08:01:38;;;;;;;9.90;5.38;;;;;;;;;;5012356;28;20018;-61
2022/03/28 08:04:04;;;;;;;9.50;5.43;;;;;;;;;;5012202;28;20473;-62
2022/03/28 08:06:30;;;;;;;12.68;5.93;;;;;;;;;;5013844;28;20148;-62
2022/03/28 08:08:56;;;;;;;15.43;9.80;;;;;;;;;;5031930;28;20127;-60
2022/03/28 08:11:21;;;;;;;7.63;4.53;;;;;;;;;;5031843;28;20068;-61
2022/03/28 08:13:47;;;;;;;7.53;4.45;;;;;;;;;;5031902;28;20021;-59
2022/03/28 08:16:13;;;;;;;16.48;5.63;;;;;;;;;;5031863;28;20044;-62
2022/03/28 08:18:39;;;;;;;13.27;5.22;;;;;;;;;;5031922;28;20026;-60
2022/03/28 08:21:05;;;;;;;14.95;5.60;;;;;;;;;;5014114;28;20036;-60
2022/03/28 08:23:31;;;;;;;13.45;5.50;;;;;;;;;;5030022;28;20029;-59
2022/03/28 08:25:57;;;;;;;14.30;5.68;;;;;;;;;;5031802;28;20097;-61
2022/03/28 08:28:23;;;;;;;15.52;6.97;;;;;;;;;;5031776;28;20029;-60
2022/03/28 08:30:49;;;;;;;18.23;7.40;;;;;;;;;;5031575;28;20041;-61
2022/03/28 08:33:14;;;;;;;9.02;5.05;;;;;;;;;;5031673;28;20030;-60
2022/03/28 08:35:40;;;;;;;13.57;6.57;;;;;;;;;;5031654;28;20477;-60
2022/03/28 08:38:06;;;;;;;13.88;5.03;;;;;;;;;;5031635;28;20383;-61
2022/03/28 08:40:32;;;;;;;8.13;5.35;;;;;;;;;;5032347;28;20025;-62
2022/03/28 08:42:58;;;;;;;22.20;9.30;;;;;;;;;;5035337;28;20087;-60
2022/03/28 08:45:23;;;;;;;31.10;10.88;;;;;;;;;;5035206;28;20025;-60
2022/03/28 08:47:50;;;;;;;10.48;5.72;;;;;;;;;;5017382;28;20111;-60
2022/03/28 08:50:16;;;;;;;16.58;8.23;;;;;;;;;;5035129;28;20032;-60
2022/03/28 08:52:43;;;;;;;9.57;6.28;;;;;;;;;;5035100;28;20026;-61
2022/03/28 08:55:09;;;;;;;19.88;9.63;;;;;;;;;;5034858;28;20105;-60
2022/03/28 08:57:35;;;;;;;13.75;6.47;;;;;;;;;;5035097;28;20021;-61
2022/03/28 09:00:04;;;;;;;18.45;7.60;;;;;;;;;;5035033;28;20112;-60
2022/03/28 09:02:45;;;;;;;23.08;9.68;;;;;;;;;;5034404;28;20029;-60
2022/03/28 09:05:12;;;;;;;24.33;10.73;;;;;;;;;;5034689;28;20022;-61
2022/03/28 09:07:38;;;;;;;19.95;7.57;;;;;;;;;;5034920;28;20112;-59
2022/03/28 09:10:06;;;;;;;8.82;5.15;;;;;;;;;;5034623;28;20160;-59
2022/03/28 09:12:39;;;;;;;9.20;4.90;;;;;;;;;;5034642;28;20103;-62
2022/03/28 09:15:09;;;;;;;26.45;10.55;;;;;;;;;;5034597;28;20060;-60
2022/03/28 09:17:38;;;;;;;17.23;9.00;;;;;;;;;;5034664;28;20080;-60
2022/03/28 09:20:04;;;;;;;13.85;7.43;;;;;;;;;;5034564;28;20029;-60
2022/03/28 09:22:37;;;;;;;42.33;13.30;;;;;;;;;;5034731;28;20033;-59
2022/03/28 09:25:09;;;;;;;13.57;7.45;;;;;;;;;;5034319;28;20095;-60
2022/03/28 09:27:37;;;;;;;29.73;10.77;;;;;;;;;;5034358;28;20065;-60
2022/03/28 09:30:08;;;;;;;11.18;6.03;;;;;;;;;;5034301;28;20499;-60
2022/03/28 09:32:39;;;;;;;11.15;5.25;;;;;;;;;;5034462;28;20037;-59
2022/03/28 09:35:08;;;;;;;8.15;5.20;;;;;;;;;;5033850;28;20029;-59
2022/03/28 09:38:02;;;;;;;9.57;4.75;;;;;;;;;;5033884;28;20534;-60
2022/03/28 09:40:35;;;;;;;9.93;5.55;;;;;;;;;;5034301;28;20116;-61
2022/03/28 09:43:19;;;;;;;7.50;4.47;;;;;;;;;;5034190;28;20115;-64
2022/03/28 09:45:53;;;;;;;8.38;4.80;;;;;;;;;;5034243;28;20029;-62
2022/03/28 09:48:20;;;;;;;11.27;5.75;;;;;;;;;;5033944;28;20046;-62
2022/03/28 09:51:03;;;;;;;33.33;14.07;;;;;;;;;;5034010;28;20116;-63
2022/03/28 09:53:31;;;;;;;15.20;7.10;;;;;;;;;;5033874;28;20029;-64
2022/03/28 09:56:08;;;;;;;28.58;11.20;;;;;;;;;;5033973;28;20026;-63
2022/03/28 09:58:38;;;;;;;7.32;5.05;;;;;;;;;;5033954;28;20570;-62
2022/03/28 10:01:06;;;;;;;22.33;9.23;;;;;;;;;;5033832;28;20029;-64
2022/03/28 10:03:34;;;;;;;25.52;7.00;;;;;;;;;;5033822;28;20129;-64
2022/03/28 10:06:03;;;;;;;15.55;6.10;;;;;;;;;;5033812;28;20110;-63
2022/03/28 10:08:30;;;;;;;28.35;7.13;;;;;;;;;;5015575;28;20052;-63
2022/03/28 10:10:59;;;;;;;22.35;9.65;;;;;;;;;;5013923;28;20149;-63
2022/03/28 10:13:26;;;;;;;10.40;5.18;;;;;;;;;;5013907;28;20030;-61
2022/03/28 10:15:52;;;;;;;16.27;6.80;;;;;;;;;;5013833;28;20072;-63
2022/03/28 10:18:18;;;;;;;9.93;5.65;;;;;;;;;;5014013;28;20045;-64
2022/03/28 10:20:46;;;;;;;19.27;8.70;;;;;;;;;;4996293;28;20030;-64
2022/03/28 10:23:15;;;;;;;32.15;11.77;;;;;;;;;;5013526;28;20455;-64
2022/03/28 10:25:41;;;;;;;8.45;5.22;;;;;;;;;;5013701;28;20030;-64
2022/03/28 10:28:08;;;;;;;18.65;8.60;;;;;;;;;;5013649;28;20036;-64
2022/03/28 10:30:34;;;;;;;19.98;6.88;;;;;;;;;;5013482;28;20070;-63
2022/03/28 10:33:10;;;;;;;10.13;5.03;;;;;;;;;;5013535;28;20026;-63
2022/03/28 10:35:36;;;;;;;19.90;7.15;;;;;;;;;;5013383;28;20566;-64
2022/03/28 10:38:16;;;;;;;7.22;4.75;;;;;;;;;;5033282;28;20052;-63
2022/03/28 10:40:57;;;;;;;16.38;6.55;;;;;;;;;;5032875;28;20103;-61
2022/03/28 10:43:25;;;;;;;11.77;5.13;;;;;;;;;;5032849;28;20475;-62
2022/03/28 10:45:58;;;;;;;16.95;7.13;;;;;;;;;;5032964;28;20404;-64
2022/03/28 10:48:39;;;;;;;14.55;6.93;;;;;;;;;;5032956;28;20026;-64
2022/03/28 10:51:13;;;;;;;14.25;5.35;;;;;;;;;;5032824;28;20165;-62
2022/03/28 10:53:43;;;;;;;22.50;8.13;;;;;;;;;;5032841;28;20067;-64
2022/03/28 10:56:13;;;;;;;7.38;4.93;;;;;;;;;;5032831;28;20079;-62
2022/03/28 10:58:43;;;;;;;12.63;7.23;;;;;;;;;;5032944;28;20033;-63
2022/03/28 11:01:11;;;;;;;9.05;5.68;;;;;;;;;;5032823;28;20317;-63
2022/03/28 11:03:38;;;;;;;7.75;5.03;;;;;;;;;;5032024;28;20037;-64
2022/03/28 11:06:05;;;;;;;7.13;4.68;;;;;;;;;;5032359;28;20034;-62
2022/03/28 11:08:31;;;;;;;6.50;4.72;;;;;;;;;;5032541;28;20021;-62
2022/03/28 11:11:20;;;;;;;8.57;4.75;;;;;;;;;;5032395;28;20148;-63
2022/03/28 11:14:10;;;;;;;7.53;4.30;;;;;;;;;;5012728;28;20036;-62
2022/03/28 11:16:52;;;;;;;7.47;5.05;;;;;;;;;;5005365;28;20128;-60
2022/03/28 11:19:25;;;;;;;8.65;4.78;;;;;;;;;;5031116;28;20041;-60
2022/03/28 11:22:08;;;;;;;6.45;4.45;;;;;;;;;;5032505;28;20486;-60
2022/03/28 11:24:57;;;;;;;11.88;4.85;;;;;;;;;;5032590;28;20429;-60
2022/03/28 11:27:24;;;;;;;8.70;4.68;;;;;;;;;;5032569;28;20030;-60
2022/03/28 11:29:58;;;;;;;6.63;4.60;;;;;;;;;;5032274;28;20053;-61
2022/03/28 11:32:24;;;;;;;10.95;5.55;;;;;;;;;;5032464;28;20250;-61
2022/03/28 11:34:54;;;;;;;8.80;4.85;;;;;;;;;;5032276;28;20030;-63
2022/03/28 11:37:24;;;;;;;12.20;8.93;;;;;;;;;;5032522;28;20053;-61
2022/03/28 11:40:02;;;;;;;10.95;6.68;;;;;;;;;;5032383;28;20029;-64
2022/03/28 11:42:30;;;;;;;9.25;4.80;;;;;;;;;;5032337;28;20152;-64
2022/03/28 11:44:57;;;;;;;6.82;5.22;;;;;;;;;;5032325;28;20026;-62
2022/03/28 11:47:23;;;;;;;22.90;7.13;;;;;;;;;;5032347;28;20051;-61
2022/03/28 11:50:01;;;;;;;11.55;5.60;;;;;;;;;;5014383;28;20108;-65
2022/03/28 11:52:31;;;;;;;12.65;7.28;;;;;;;;;;5032068;28;20037;-61
2022/03/28 11:54:58;;;;;;;9.93;4.95;;;;;;;;;;5032349;28;20018;-63
2022/03/28 12:00:19;;;;;;;9.32;5.80;;;;;;;;;;5032224;28;20087;-64
2022/03/28 12:02:50;;;;;;;12.82;5.75;;;;;;;;;;5032031;28;20043;-63
2022/03/28 12:05:30;;;;;;;8.77;5.95;;;;;;;;;;5032241;28;20026;-65
2022/03/28 12:07:57;;;;;;;8.70;6.55;;;;;;;;;;5032066;28;20034;-63
2022/03/28 12:10:28;;;;;;;8.48;6.28;;;;;;;;;;5031999;28;20033;-64
2022/03/28 12:12:56;;;;;;;16.10;10.68;;;;;;;;;;5030768;28;20026;-63
2022/03/28 12:15:31;;;;;;;13.38;7.60;;;;;;;;;;5032572;28;20044;-61
2022/03/28 12:17:59;;;;;;;21.98;7.85;;;;;;;;;;5035765;28;20025;-64
2022/03/28 12:20:33;;;;;;;44.08;8.32;;;;;;;;;;5035876;28;20036;-62
2022/03/28 12:22:59;;;;;;;35.88;7.57;;;;;;;;;;5035668;28;20022;-64
2022/03/28 12:25:36;;;;;;;13.32;6.82;;;;;;;;;;5035784;28;20113;-62
2022/03/28 12:28:25;;;;;;;12.00;8.18;;;;;;;;;;5035643;28;20026;-63
2022/03/28 12:30:53;;;;;;;14.13;7.30;;;;;;;;;;5022584;28;20518;-64
2022/03/28 12:33:29;;;;;;;11.57;6.95;;;;;;;;;;5034041;28;20386;-65
2022/03/28 12:36:12;;;;;;;9.25;6.80;;;;;;;;;;5035315;28;20039;-62
2022/03/28 12:38:43;;;;;;;9.60;6.93;;;;;;;;;;5035237;28;20100;-64
2022/03/28 12:41:11;;;;;;;13.45;7.90;;;;;;;;;;5035269;28;20025;-65
2022/03/28 12:43:39;;;;;;;18.17;7.32;;;;;;;;;;5035274;28;20031;-61
2022/03/28 12:46:06;;;;;;;16.77;8.05;;;;;;;;;;5034978;28;20037;-65
2022/03/28 12:48:43;;;;;;;11.05;7.00;;;;;;;;;;5035238;28;20084;-64
2022/03/28 12:51:10;;;;;;;13.60;6.80;;;;;;;;;;5035198;28;20387;-65
2022/03/28 12:53:37;;;;;;;13.57;8.38;;;;;;;;;;5035272;28;20029;-64
2022/03/28 12:56:18;;;;;;;10.32;7.85;;;;;;;;;;5034941;28;20030;-65
2022/03/28 12:58:54;;;;;;;;;;;;;;;;;;5035337;28;20022;-63
2022/03/28 13:01:26;;;;;;;8.35;5.07;;;;;;;;;;5034787;28;19913;-65
2022/03/28 13:04:07;;;;;;;13.90;7.38;;;;;;;;;;5034767;28;20029;-64
2022/03/28 13:06:33;;;;;;;16.63;7.05;;;;;;;;;;5034681;28;20025;-65
2022/03/28 13:09:04;;;;;;;12.13;6.20;;;;;;;;;;5034643;28;20124;-65
2022/03/28 13:11:34;;;;;;;10.85;5.88;;;;;;;;;;5034472;28;20037;-65
2022/03/28 13:14:02;;;;;;;14.90;6.68;;;;;;;;;;5034565;28;20018;-64
2022/03/28 13:16:28;;;;;;;11.30;6.28;;;;;;;;;;5034338;28;20108;-64
2022/03/28 13:18:57;;;;;;;10.48;6.97;;;;;;;;;;5034815;28;20152;-64
2022/03/28 13:21:35;;;;;;;13.95;5.85;;;;;;;;;;5034746;28;20032;-62
2022/03/28 13:24:03;;;;;;;9.68;6.35;;;;;;;;;;5034491;28;20052;-63
2022/03/28 13:26:40;;;;;;;8.50;5.78;;;;;;;;;;5033942;28;20029;-61
2022/03/28 13:29:20;;;;;;;11.75;6.20;;;;;;;;;;5034389;28;20048;-62
2022/03/28 13:31:46;;;;;;;12.68;6.85;;;;;;;;;;5034195;28;20029;-62
2022/03/28 13:34:11;;;;;;;11.45;6.65;;;;;;;;;;5034332;28;20375;-64
2022/03/28 13:36:37;;;;;;;23.83;8.43;;;;;;;;;;5034157;28;20030;-64
2022/03/28 13:39:03;;;;;;;9.43;6.00;;;;;;;;;;5034335;28;20021;-59
2022/03/28 13:41:28;;;;;;;17.75;9.70;;;;;;;;;;5034437;28;20074;-61
2022/03/28 13:43:54;;;;;;;16.67;6.75;;;;;;;;;;5034143;28;20026;-64
2022/03/28 13:46:19;;;;;;;29.52;8.38;;;;;;;;;;5033924;28;20389;-61
2022/03/28 13:48:45;;;;;;;20.33;11.57;;;;;;;;;;5034053;28;20040;-64
2022/03/28 13:51:10;;;;;;;26.88;13.50;;;;;;;;;;5032568;28;20029;-63
2022/03/28 13:53:38;;;;;;;23.85;10.75;;;;;;;;;;5033890;28;20490;-60
2022/03/28 13:56:06;;;;;;;10.50;5.25;;;;;;;;;;5033551;28;20040;-65
2022/03/28 13:58:32;;;;;;;17.40;8.38;;;;;;;;;;5033296;28;20025;-66
2022/03/28 14:00:58;;;;;;;14.65;6.45;;;;;;;;;;5033988;28;20037;-61
2022/03/28 14:03:24;;;;;;;9.30;6.22;;;;;;;;;;5033753;28;20025;-65
2022/03/28 14:05:51;;;;;;;7.88;5.45;;;;;;;;;;5033634;28;20033;-63
2022/03/28 14:08:20;;;;;;;11.07;6.15;;;;;;;;;;5033533;28;20026;-62
2022/03/28 14:10:47;;;;;;;11.80;6.05;;;;;;;;;;5033445;28;20091;-62
2022/03/28 14:13:13;;;;;;;13.45;6.53;;;;;;;;;;5033231;28;20056;-66
2022/03/28 14:15:39;;;;;;;10.65;6.20;;;;;;;;;;5033671;28;20057;-61
2022/03/28 14:18:04;;;;;;;18.05;6.28;;;;;;;;;;5033413;28;20026;-63
2022/03/28 14:20:30;;;;;;;12.93;5.60;;;;;;;;;;5033503;28;20029;-60
2022/03/28 14:22:56;;;;;;;18.73;9.23;;;;;;;;;;5033205;28;20386;-59
2022/03/28 14:25:22;;;;;;;24.55;10.88;;;;;;;;;;5033316;28;20463;-61
2022/03/28 14:27:48;;;;;;;29.90;15.80;;;;;;;;;;5032758;28;20040;-63
2022/03/28 14:30:15;;;;;;;14.73;7.18;;;;;;;;;;5033178;28;20049;-63
2022/03/28 14:32:41;;;;;;;8.88;5.63;;;;;;;;;;5033110;28;20037;-60
2022/03/28 14:35:08;;;;;;;12.35;6.45;;;;;;;;;;5033213;28;20029;-64
2022/03/28 14:37:35;;;;;;;15.63;5.63;;;;;;;;;;5032798;28;20045;-63
2022/03/28 14:40:06;;;;;;;8.98;5.75;;;;;;;;;;5032483;28;20139;-63